sensor_id;sensor_type;location;lat;lon;timestamp;P1;durP1;ratioP1;P2;durP2;ratioP2
12356;SDS011;6243;51.244;6.774;2022-11-15T00:00:23;11.77;;;9.10;;
12356;SDS011;6243;51.244;6.774;2022-11-15T00:02:51;10.97;;;9.23;;
12356;SDS011;6243;51.244;6.774;2022-11-15T00:05:17;11.27;;;9.03;;
12356;SDS011;6243;51.244;6.774;2022-11-15T00:07:43;10.37;;;9.07;;
12356;SDS011;6243;51.244;6.774;2022-11-15T00:10:09;10.80;;;9.13;;
12356;SDS011;6243;51.244;6.774;2022-11-15T00:12:34;10.77;;;9.10;;
12356;SDS011;6243;51.244;6.774;2022-11-15T00:15:00;11.10;;;8.90;;
12356;SDS011;6243;51.244;6.774;2022-11-15T00:17:25;11.70;;;8.93;;
12356;SDS011;6243;51.244;6.774;2022-11-15T00:19:52;12.47;;;8.20;;
12356;SDS011;6243;51.244;6.774;2022-11-15T00:22:18;13.17;;;8.47;;
12356;SDS011;6243;51.244;6.774;2022-11-15T00:24:43;9.37;;;8.47;;
12356;SDS011;6243;51.244;6.774;2022-11-15T00:27:09;9.77;;;8.23;;
12356;SDS011;6243;51.244;6.774;2022-11-15T00:29:34;10.43;;;8.57;;
12356;SDS011;6243;51.244;6.774;2022-11-15T00:32:00;9.50;;;8.40;;
12356;SDS011;6243;51.244;6.774;2022-11-15T00:34:26;11.80;;;8.83;;
12356;SDS011;6243;51.244;6.774;2022-11-15T00:36:53;8.67;;;7.70;;
12356;SDS011;6243;51.244;6.774;2022-11-15T00:39:18;10.80;;;8.50;;
12356;SDS011;6243;51.244;6.774;2022-11-15T00:41:44;12.43;;;8.80;;
12356;SDS011;6243;51.244;6.774;2022-11-15T00:44:09;10.37;;;8.10;;
12356;SDS011;6243;51.244;6.774;2022-11-15T00:46:34;11.13;;;8.30;;
12356;SDS011;6243;51.244;6.774;2022-11-15T00:49:00;10.13;;;7.90;;
12356;SDS011;6243;51.244;6.774;2022-11-15T00:51:25;11.17;;;7.53;;
12356;SDS011;6243;51.244;6.774;2022-11-15T00:53:52;11.63;;;8.50;;
12356;SDS011;6243;51.244;6.774;2022-11-15T00:56:18;10.63;;;8.70;;
12356;SDS011;6243;51.244;6.774;2022-11-15T00:58:43;10.53;;;7.70;;
12356;SDS011;6243;51.244;6.774;2022-11-15T01:01:09;10.50;;;8.10;;
12356;SDS011;6243;51.244;6.774;2022-11-15T01:03:37;9.30;;;8.20;;
12356;SDS011;6243;51.244;6.774;2022-11-15T01:06:04;9.87;;;7.53;;
12356;SDS011;6243;51.244;6.774;2022-11-15T01:08:30;10.53;;;8.10;;
12356;SDS011;6243;51.244;6.774;2022-11-15T01:11:01;8.97;;;7.70;;
12356;SDS011;6243;51.244;6.774;2022-11-15T01:13:28;7.90;;;7.07;;
12356;SDS011;6243;51.244;6.774;2022-11-15T01:15:55;8.70;;;7.80;;
12356;SDS011;6243;51.244;6.774;2022-11-15T01:18:20;8.63;;;7.70;;
12356;SDS011;6243;51.244;6.774;2022-11-15T01:20:46;11.53;;;8.30;;
12356;SDS011;6243;51.244;6.774;2022-11-15T01:23:11;8.67;;;7.77;;
12356;SDS011;6243;51.244;6.774;2022-11-15T01:25:37;8.70;;;7.70;;
12356;SDS011;6243;51.244;6.774;2022-11-15T01:28:04;8.93;;;7.13;;
12356;SDS011;6243;51.244;6.774;2022-11-15T01:30:29;9.70;;;8.03;;
12356;SDS011;6243;51.244;6.774;2022-11-15T01:32:55;9.77;;;7.73;;
12356;SDS011;6243;51.244;6.774;2022-11-15T01:35:20;12.30;;;7.50;;
12356;SDS011;6243;51.244;6.774;2022-11-15T01:37:46;10.93;;;8.63;;
12356;SDS011;6243;51.244;6.774;2022-11-15T01:40:12;9.63;;;8.47;;
12356;SDS011;6243;51.244;6.774;2022-11-15T01:42:37;9.30;;;7.50;;
12356;SDS011;6243;51.244;6.774;2022-11-15T01:45:05;8.77;;;7.83;;
12356;SDS011;6243;51.244;6.774;2022-11-15T01:47:37;8.77;;;7.90;;
12356;SDS011;6243;51.244;6.774;2022-11-15T01:50:08;12.07;;;8.17;;
12356;SDS011;6243;51.244;6.774;2022-11-15T01:52:37;9.60;;;7.50;;
12356;SDS011;6243;51.244;6.774;2022-11-15T01:55:05;10.13;;;7.93;;
12356;SDS011;6243;51.244;6.774;2022-11-15T01:57:33;11.00;;;8.60;;
12356;SDS011;6243;51.244;6.774;2022-11-15T01:59:59;11.40;;;8.73;;
12356;SDS011;6243;51.244;6.774;2022-11-15T02:02:27;10.00;;;8.30;;
12356;SDS011;6243;51.244;6.774;2022-11-15T02:04:53;9.83;;;8.43;;
12356;SDS011;6243;51.244;6.774;2022-11-15T02:07:19;11.83;;;8.67;;
12356;SDS011;6243;51.244;6.774;2022-11-15T02:09:46;10.13;;;7.87;;
12356;SDS011;6243;51.244;6.774;2022-11-15T02:12:13;8.60;;;7.70;;
12356;SDS011;6243;51.244;6.774;2022-11-15T02:14:44;9.10;;;7.73;;
12356;SDS011;6243;51.244;6.774;2022-11-15T02:17:16;9.20;;;8.17;;
12356;SDS011;6243;51.244;6.774;2022-11-15T02:22:51;9.00;;;7.83;;
12356;SDS011;6243;51.244;6.774;2022-11-15T02:25:35;10.40;;;7.27;;
12356;SDS011;6243;51.244;6.774;2022-11-15T02:28:16;9.50;;;8.40;;
12356;SDS011;6243;51.244;6.774;2022-11-15T02:30:58;9.33;;;7.90;;
12356;SDS011;6243;51.244;6.774;2022-11-15T02:33:31;10.00;;;7.70;;
12356;SDS011;6243;51.244;6.774;2022-11-15T02:36:02;11.23;;;7.63;;
12356;SDS011;6243;51.244;6.774;2022-11-15T02:38:33;11.37;;;7.43;;
12356;SDS011;6243;51.244;6.774;2022-11-15T02:41:06;10.73;;;8.07;;
12356;SDS011;6243;51.244;6.774;2022-11-15T02:43:36;10.53;;;8.50;;
12356;SDS011;6243;51.244;6.774;2022-11-15T02:46:08;9.30;;;7.30;;
12356;SDS011;6243;51.244;6.774;2022-11-15T02:48:40;8.80;;;7.90;;
12356;SDS011;6243;51.244;6.774;2022-11-15T02:51:08;8.00;;;7.20;;
12356;SDS011;6243;51.244;6.774;2022-11-15T02:53:34;8.53;;;7.10;;
12356;SDS011;6243;51.244;6.774;2022-11-15T02:56:00;10.83;;;8.47;;
12356;SDS011;6243;51.244;6.774;2022-11-15T03:01:28;10.60;;;7.57;;
12356;SDS011;6243;51.244;6.774;2022-11-15T03:04:06;9.37;;;8.10;;
12356;SDS011;6243;51.244;6.774;2022-11-15T03:06:44;8.70;;;7.40;;
12356;SDS011;6243;51.244;6.774;2022-11-15T03:09:17;12.03;;;8.17;;
12356;SDS011;6243;51.244;6.774;2022-11-15T03:11:55;9.27;;;8.10;;
12356;SDS011;6243;51.244;6.774;2022-11-15T03:14:25;8.97;;;7.97;;
12356;SDS011;6243;51.244;6.774;2022-11-15T03:16:58;9.40;;;8.37;;
12356;SDS011;6243;51.244;6.774;2022-11-15T03:19:33;9.10;;;7.90;;
12356;SDS011;6243;51.244;6.774;2022-11-15T03:22:03;11.00;;;9.00;;
12356;SDS011;6243;51.244;6.774;2022-11-15T03:24:34;10.03;;;7.90;;
12356;SDS011;6243;51.244;6.774;2022-11-15T03:27:01;9.20;;;7.57;;
12356;SDS011;6243;51.244;6.774;2022-11-15T03:29:31;8.50;;;7.40;;
12356;SDS011;6243;51.244;6.774;2022-11-15T03:32:01;10.17;;;7.87;;
12356;SDS011;6243;51.244;6.774;2022-11-15T03:34:31;8.77;;;7.40;;
12356;SDS011;6243;51.244;6.774;2022-11-15T03:37:00;9.53;;;7.53;;
12356;SDS011;6243;51.244;6.774;2022-11-15T03:39:26;9.93;;;8.47;;
12356;SDS011;6243;51.244;6.774;2022-11-15T03:41:56;9.07;;;7.53;;
12356;SDS011;6243;51.244;6.774;2022-11-15T03:44:31;11.63;;;7.03;;
12356;SDS011;6243;51.244;6.774;2022-11-15T03:47:07;8.83;;;7.47;;
12356;SDS011;6243;51.244;6.774;2022-11-15T03:49:38;9.17;;;7.17;;
12356;SDS011;6243;51.244;6.774;2022-11-15T03:52:08;7.73;;;6.93;;
12356;SDS011;6243;51.244;6.774;2022-11-15T03:54:35;10.10;;;7.53;;
12356;SDS011;6243;51.244;6.774;2022-11-15T03:57:01;8.27;;;7.33;;
12356;SDS011;6243;51.244;6.774;2022-11-15T03:59:26;8.30;;;7.33;;
12356;SDS011;6243;51.244;6.774;2022-11-15T04:01:52;8.40;;;7.40;;
12356;SDS011;6243;51.244;6.774;2022-11-15T04:04:19;8.40;;;7.07;;
12356;SDS011;6243;51.244;6.774;2022-11-15T04:06:44;7.93;;;6.83;;
12356;SDS011;6243;51.244;6.774;2022-11-15T04:09:10;8.63;;;6.90;;
12356;SDS011;6243;51.244;6.774;2022-11-15T04:11:35;8.03;;;6.50;;
12356;SDS011;6243;51.244;6.774;2022-11-15T04:14:01;8.37;;;6.73;;
12356;SDS011;6243;51.244;6.774;2022-11-15T04:16:26;9.93;;;6.57;;
12356;SDS011;6243;51.244;6.774;2022-11-15T04:18:52;7.10;;;6.40;;
12356;SDS011;6243;51.244;6.774;2022-11-15T04:21:19;7.23;;;6.47;;
12356;SDS011;6243;51.244;6.774;2022-11-15T04:23:44;7.67;;;6.77;;
12356;SDS011;6243;51.244;6.774;2022-11-15T04:26:11;7.50;;;6.13;;
12356;SDS011;6243;51.244;6.774;2022-11-15T04:28:39;8.60;;;7.07;;
12356;SDS011;6243;51.244;6.774;2022-11-15T04:31:05;7.33;;;6.30;;
12356;SDS011;6243;51.244;6.774;2022-11-15T04:33:30;7.90;;;6.23;;
12356;SDS011;6243;51.244;6.774;2022-11-15T04:35:56;8.67;;;6.30;;
12356;SDS011;6243;51.244;6.774;2022-11-15T04:38:22;8.90;;;6.23;;
12356;SDS011;6243;51.244;6.774;2022-11-15T04:40:48;6.90;;;6.20;;
12356;SDS011;6243;51.244;6.774;2022-11-15T04:43:14;7.07;;;6.27;;
12356;SDS011;6243;51.244;6.774;2022-11-15T04:45:39;9.43;;;6.40;;
12356;SDS011;6243;51.244;6.774;2022-11-15T04:48:05;6.43;;;5.70;;
12356;SDS011;6243;51.244;6.774;2022-11-15T04:50:30;7.17;;;6.43;;
12356;SDS011;6243;51.244;6.774;2022-11-15T04:52:56;6.53;;;5.93;;
12356;SDS011;6243;51.244;6.774;2022-11-15T04:55:23;6.70;;;5.90;;
12356;SDS011;6243;51.244;6.774;2022-11-15T04:57:56;7.37;;;6.13;;
12356;SDS011;6243;51.244;6.774;2022-11-15T05:00:23;6.33;;;5.67;;
12356;SDS011;6243;51.244;6.774;2022-11-15T05:02:48;8.43;;;6.20;;
12356;SDS011;6243;51.244;6.774;2022-11-15T05:05:13;6.80;;;6.10;;
12356;SDS011;6243;51.244;6.774;2022-11-15T05:07:39;7.03;;;5.90;;
12356;SDS011;6243;51.244;6.774;2022-11-15T05:10:05;7.03;;;5.83;;
12356;SDS011;6243;51.244;6.774;2022-11-15T05:12:32;6.53;;;5.70;;
12356;SDS011;6243;51.244;6.774;2022-11-15T05:14:57;7.00;;;6.10;;
12356;SDS011;6243;51.244;6.774;2022-11-15T05:17:23;7.10;;;6.40;;
12356;SDS011;6243;51.244;6.774;2022-11-15T05:19:48;8.30;;;6.37;;
12356;SDS011;6243;51.244;6.774;2022-11-15T05:22:14;7.67;;;6.43;;
12356;SDS011;6243;51.244;6.774;2022-11-15T05:24:39;9.23;;;7.50;;
12356;SDS011;6243;51.244;6.774;2022-11-15T05:27:05;7.70;;;6.77;;
12356;SDS011;6243;51.244;6.774;2022-11-15T05:29:32;7.87;;;5.90;;
12356;SDS011;6243;51.244;6.774;2022-11-15T05:31:57;7.43;;;6.47;;
12356;SDS011;6243;51.244;6.774;2022-11-15T05:34:23;7.97;;;6.77;;
12356;SDS011;6243;51.244;6.774;2022-11-15T05:36:49;9.03;;;6.83;;
12356;SDS011;6243;51.244;6.774;2022-11-15T05:39:14;8.70;;;6.67;;
12356;SDS011;6243;51.244;6.774;2022-11-15T05:41:41;7.47;;;6.07;;
12356;SDS011;6243;51.244;6.774;2022-11-15T05:44:10;7.00;;;5.77;;
12356;SDS011;6243;51.244;6.774;2022-11-15T05:46:39;7.30;;;6.60;;
12356;SDS011;6243;51.244;6.774;2022-11-15T05:49:07;7.50;;;6.63;;
12356;SDS011;6243;51.244;6.774;2022-11-15T05:51:36;7.87;;;6.17;;
12356;SDS011;6243;51.244;6.774;2022-11-15T05:54:02;8.33;;;6.70;;
12356;SDS011;6243;51.244;6.774;2022-11-15T05:56:28;6.77;;;6.00;;
12356;SDS011;6243;51.244;6.774;2022-11-15T05:58:53;6.90;;;6.20;;
12356;SDS011;6243;51.244;6.774;2022-11-15T06:01:21;6.87;;;6.17;;
12356;SDS011;6243;51.244;6.774;2022-11-15T06:03:48;7.80;;;6.80;;
12356;SDS011;6243;51.244;6.774;2022-11-15T06:06:14;6.77;;;6.07;;
12356;SDS011;6243;51.244;6.774;2022-11-15T06:08:39;7.27;;;6.30;;
12356;SDS011;6243;51.244;6.774;2022-11-15T06:11:05;7.57;;;6.70;;
12356;SDS011;6243;51.244;6.774;2022-11-15T06:13:31;8.10;;;6.33;;
12356;SDS011;6243;51.244;6.774;2022-11-15T06:15:56;7.67;;;6.80;;
12356;SDS011;6243;51.244;6.774;2022-11-15T06:18:22;8.13;;;6.27;;
12356;SDS011;6243;51.244;6.774;2022-11-15T06:20:49;6.67;;;5.67;;
12356;SDS011;6243;51.244;6.774;2022-11-15T06:23:15;7.13;;;5.87;;
12356;SDS011;6243;51.244;6.774;2022-11-15T06:25:41;6.93;;;5.60;;
12356;SDS011;6243;51.244;6.774;2022-11-15T06:28:06;5.77;;;5.27;;
12356;SDS011;6243;51.244;6.774;2022-11-15T06:30:32;6.27;;;5.63;;
12356;SDS011;6243;51.244;6.774;2022-11-15T06:33:00;7.03;;;5.63;;
12356;SDS011;6243;51.244;6.774;2022-11-15T06:35:25;7.47;;;6.13;;
12356;SDS011;6243;51.244;6.774;2022-11-15T06:37:52;7.20;;;6.13;;
12356;SDS011;6243;51.244;6.774;2022-11-15T06:40:18;6.73;;;5.90;;
12356;SDS011;6243;51.244;6.774;2022-11-15T06:42:44;5.80;;;5.27;;
12356;SDS011;6243;51.244;6.774;2022-11-15T06:45:09;6.67;;;5.97;;
12356;SDS011;6243;51.244;6.774;2022-11-15T06:47:34;6.83;;;5.63;;
12356;SDS011;6243;51.244;6.774;2022-11-15T06:50:00;5.47;;;4.83;;
12356;SDS011;6243;51.244;6.774;2022-11-15T06:52:25;5.33;;;4.47;;
12356;SDS011;6243;51.244;6.774;2022-11-15T06:54:52;6.00;;;5.03;;
12356;SDS011;6243;51.244;6.774;2022-11-15T06:57:18;5.70;;;5.10;;
12356;SDS011;6243;51.244;6.774;2022-11-15T06:59:43;5.37;;;4.87;;
12356;SDS011;6243;51.244;6.774;2022-11-15T07:02:11;6.67;;;5.03;;
12356;SDS011;6243;51.244;6.774;2022-11-15T07:04:37;5.47;;;4.97;;
12356;SDS011;6243;51.244;6.774;2022-11-15T07:07:03;5.87;;;5.07;;
12356;SDS011;6243;51.244;6.774;2022-11-15T07:09:29;5.00;;;4.50;;
12356;SDS011;6243;51.244;6.774;2022-11-15T07:11:55;4.87;;;4.10;;
12356;SDS011;6243;51.244;6.774;2022-11-15T07:14:21;6.77;;;4.63;;
12356;SDS011;6243;51.244;6.774;2022-11-15T07:16:46;4.17;;;3.80;;
12356;SDS011;6243;51.244;6.774;2022-11-15T07:19:12;4.97;;;4.17;;
12356;SDS011;6243;51.244;6.774;2022-11-15T07:21:37;4.30;;;3.90;;
12356;SDS011;6243;51.244;6.774;2022-11-15T07:24:03;4.57;;;3.80;;
12356;SDS011;6243;51.244;6.774;2022-11-15T07:26:29;4.00;;;3.40;;
12356;SDS011;6243;51.244;6.774;2022-11-15T07:28:56;4.97;;;4.00;;
12356;SDS011;6243;51.244;6.774;2022-11-15T07:31:21;3.80;;;3.40;;
12356;SDS011;6243;51.244;6.774;2022-11-15T07:33:47;4.77;;;3.97;;
12356;SDS011;6243;51.244;6.774;2022-11-15T07:36:12;5.93;;;3.70;;
12356;SDS011;6243;51.244;6.774;2022-11-15T07:38:38;4.57;;;4.00;;
12356;SDS011;6243;51.244;6.774;2022-11-15T07:41:04;4.40;;;4.00;;
12356;SDS011;6243;51.244;6.774;2022-11-15T07:43:30;4.53;;;4.13;;
12356;SDS011;6243;51.244;6.774;2022-11-15T07:45:57;4.57;;;4.17;;
12356;SDS011;6243;51.244;6.774;2022-11-15T07:48:22;5.63;;;4.50;;
12356;SDS011;6243;51.244;6.774;2022-11-15T07:50:48;4.50;;;4.10;;
12356;SDS011;6243;51.244;6.774;2022-11-15T07:53:14;5.60;;;4.23;;
12356;SDS011;6243;51.244;6.774;2022-11-15T07:55:40;4.47;;;3.87;;
12356;SDS011;6243;51.244;6.774;2022-11-15T07:58:07;4.50;;;4.10;;
12356;SDS011;6243;51.244;6.774;2022-11-15T08:00:35;5.00;;;3.53;;
12356;SDS011;6243;51.244;6.774;2022-11-15T08:03:03;3.40;;;3.10;;
12356;SDS011;6243;51.244;6.774;2022-11-15T08:05:29;4.30;;;3.60;;
12356;SDS011;6243;51.244;6.774;2022-11-15T08:07:55;4.50;;;3.47;;
12356;SDS011;6243;51.244;6.774;2022-11-15T08:10:20;4.90;;;3.50;;
12356;SDS011;6243;51.244;6.774;2022-11-15T08:12:46;4.63;;;3.10;;
12356;SDS011;6243;51.244;6.774;2022-11-15T08:15:12;6.90;;;3.67;;
12356;SDS011;6243;51.244;6.774;2022-11-15T08:17:37;3.17;;;2.87;;
12356;SDS011;6243;51.244;6.774;2022-11-15T08:20:04;3.90;;;3.30;;
12356;SDS011;6243;51.244;6.774;2022-11-15T08:22:31;5.83;;;3.53;;
12356;SDS011;6243;51.244;6.774;2022-11-15T08:24:58;6.40;;;2.97;;
12356;SDS011;6243;51.244;6.774;2022-11-15T08:27:23;4.17;;;3.50;;
12356;SDS011;6243;51.244;6.774;2022-11-15T08:29:49;4.63;;;3.43;;
12356;SDS011;6243;51.244;6.774;2022-11-15T08:32:14;5.47;;;3.43;;
12356;SDS011;6243;51.244;6.774;2022-11-15T08:34:40;4.43;;;3.20;;
12356;SDS011;6243;51.244;6.774;2022-11-15T08:37:07;3.80;;;3.00;;
12356;SDS011;6243;51.244;6.774;2022-11-15T08:39:32;3.23;;;2.83;;
12356;SDS011;6243;51.244;6.774;2022-11-15T08:41:58;3.10;;;2.73;;
12356;SDS011;6243;51.244;6.774;2022-11-15T08:44:24;3.13;;;2.77;;
12356;SDS011;6243;51.244;6.774;2022-11-15T08:46:49;3.87;;;3.30;;
12356;SDS011;6243;51.244;6.774;2022-11-15T08:49:15;4.47;;;3.07;;
12356;SDS011;6243;51.244;6.774;2022-11-15T08:51:41;3.47;;;2.93;;
12356;SDS011;6243;51.244;6.774;2022-11-15T08:54:08;3.93;;;2.97;;
12356;SDS011;6243;51.244;6.774;2022-11-15T08:56:34;3.40;;;2.53;;
12356;SDS011;6243;51.244;6.774;2022-11-15T08:58:59;3.33;;;2.87;;
12356;SDS011;6243;51.244;6.774;2022-11-15T09:01:25;4.63;;;2.70;;
12356;SDS011;6243;51.244;6.774;2022-11-15T09:03:50;2.90;;;2.60;;
12356;SDS011;6243;51.244;6.774;2022-11-15T09:06:16;3.00;;;2.60;;
12356;SDS011;6243;51.244;6.774;2022-11-15T09:08:41;3.47;;;2.47;;
12356;SDS011;6243;51.244;6.774;2022-11-15T09:11:09;5.77;;;2.90;;
12356;SDS011;6243;51.244;6.774;2022-11-15T09:13:35;3.70;;;2.53;;
12356;SDS011;6243;51.244;6.774;2022-11-15T09:16:01;3.03;;;2.57;;
12356;SDS011;6243;51.244;6.774;2022-11-15T09:18:27;3.53;;;2.40;;
12356;SDS011;6243;51.244;6.774;2022-11-15T09:20:54;4.53;;;2.07;;
12356;SDS011;6243;51.244;6.774;2022-11-15T09:23:20;5.23;;;1.90;;
12356;SDS011;6243;51.244;6.774;2022-11-15T09:25:46;2.13;;;1.77;;
12356;SDS011;6243;51.244;6.774;2022-11-15T09:28:13;2.57;;;1.70;;
12356;SDS011;6243;51.244;6.774;2022-11-15T09:30:38;3.53;;;1.73;;
12356;SDS011;6243;51.244;6.774;2022-11-15T09:33:07;3.83;;;2.17;;
12356;SDS011;6243;51.244;6.774;2022-11-15T09:35:33;4.07;;;2.43;;
12356;SDS011;6243;51.244;6.774;2022-11-15T09:37:58;3.10;;;2.80;;
12356;SDS011;6243;51.244;6.774;2022-11-15T09:40:24;3.10;;;2.83;;
12356;SDS011;6243;51.244;6.774;2022-11-15T09:42:57;4.07;;;3.60;;
12356;SDS011;6243;51.244;6.774;2022-11-15T09:45:31;5.40;;;4.90;;
12356;SDS011;6243;51.244;6.774;2022-11-15T09:48:21;7.20;;;6.50;;
12356;SDS011;6243;51.244;6.774;2022-11-15T09:50:54;5.23;;;4.47;;
12356;SDS011;6243;51.244;6.774;2022-11-15T09:53:22;3.40;;;3.10;;
12356;SDS011;6243;51.244;6.774;2022-11-15T09:55:53;3.80;;;2.70;;
12356;SDS011;6243;51.244;6.774;2022-11-15T09:58:24;2.10;;;1.77;;
12356;SDS011;6243;51.244;6.774;2022-11-15T10:00:59;4.93;;;1.97;;
12356;SDS011;6243;51.244;6.774;2022-11-15T10:03:33;2.40;;;1.60;;
12356;SDS011;6243;51.244;6.774;2022-11-15T10:06:00;2.37;;;1.77;;
12356;SDS011;6243;51.244;6.774;2022-11-15T10:11:20;3.27;;;2.13;;
12356;SDS011;6243;51.244;6.774;2022-11-15T10:13:47;2.50;;;2.30;;
12356;SDS011;6243;51.244;6.774;2022-11-15T10:16:20;2.60;;;1.90;;
12356;SDS011;6243;51.244;6.774;2022-11-15T10:19:03;1.87;;;1.50;;
12356;SDS011;6243;51.244;6.774;2022-11-15T10:21:37;3.27;;;1.50;;
12356;SDS011;6243;51.244;6.774;2022-11-15T10:24:11;2.63;;;1.30;;
12356;SDS011;6243;51.244;6.774;2022-11-15T10:26:45;2.70;;;1.60;;
12356;SDS011;6243;51.244;6.774;2022-11-15T10:29:11;3.87;;;1.73;;
12356;SDS011;6243;51.244;6.774;2022-11-15T10:31:44;1.87;;;1.37;;
12356;SDS011;6243;51.244;6.774;2022-11-15T10:34:11;3.17;;;2.20;;
12356;SDS011;6243;51.244;6.774;2022-11-15T10:36:39;2.67;;;1.87;;
12356;SDS011;6243;51.244;6.774;2022-11-15T10:39:10;1.93;;;1.30;;
12356;SDS011;6243;51.244;6.774;2022-11-15T10:41:37;4.33;;;1.83;;
12356;SDS011;6243;51.244;6.774;2022-11-15T10:47:04;2.20;;;1.20;;
12356;SDS011;6243;51.244;6.774;2022-11-15T10:49:57;2.67;;;1.60;;
12356;SDS011;6243;51.244;6.774;2022-11-15T10:52:25;2.43;;;1.60;;
12356;SDS011;6243;51.244;6.774;2022-11-15T10:54:52;1.70;;;1.30;;
12356;SDS011;6243;51.244;6.774;2022-11-15T10:57:21;4.20;;;1.37;;
12356;SDS011;6243;51.244;6.774;2022-11-15T10:59:49;2.00;;;1.20;;
12356;SDS011;6243;51.244;6.774;2022-11-15T11:02:28;4.00;;;1.20;;
12356;SDS011;6243;51.244;6.774;2022-11-15T11:04:56;3.57;;;1.10;;
12356;SDS011;6243;51.244;6.774;2022-11-15T11:07:22;1.90;;;1.20;;
12356;SDS011;6243;51.244;6.774;2022-11-15T11:09:56;2.40;;;1.13;;
12356;SDS011;6243;51.244;6.774;2022-11-15T11:12:26;1.60;;;1.00;;
12356;SDS011;6243;51.244;6.774;2022-11-15T11:14:54;1.00;;;0.83;;
12356;SDS011;6243;51.244;6.774;2022-11-15T11:17:21;1.47;;;0.70;;
12356;SDS011;6243;51.244;6.774;2022-11-15T11:20:02;1.47;;;1.20;;
12356;SDS011;6243;51.244;6.774;2022-11-15T11:22:36;2.43;;;0.90;;
12356;SDS011;6243;51.244;6.774;2022-11-15T11:25:12;2.87;;;1.10;;
12356;SDS011;6243;51.244;6.774;2022-11-15T11:27:47;2.00;;;0.90;;
12356;SDS011;6243;51.244;6.774;2022-11-15T11:30:23;2.33;;;1.00;;
12356;SDS011;6243;51.244;6.774;2022-11-15T11:32:59;2.13;;;0.87;;
12356;SDS011;6243;51.244;6.774;2022-11-15T11:35:34;0.90;;;0.73;;
12356;SDS011;6243;51.244;6.774;2022-11-15T11:38:16;2.87;;;1.40;;
12356;SDS011;6243;51.244;6.774;2022-11-15T11:40:54;2.83;;;1.00;;
12356;SDS011;6243;51.244;6.774;2022-11-15T11:43:30;1.40;;;0.97;;
12356;SDS011;6243;51.244;6.774;2022-11-15T11:46:06;2.00;;;1.30;;
12356;SDS011;6243;51.244;6.774;2022-11-15T11:48:45;1.30;;;0.87;;
12356;SDS011;6243;51.244;6.774;2022-11-15T11:51:18;1.90;;;1.00;;
12356;SDS011;6243;51.244;6.774;2022-11-15T11:53:50;2.30;;;0.90;;
12356;SDS011;6243;51.244;6.774;2022-11-15T11:56:22;1.67;;;0.70;;
12356;SDS011;6243;51.244;6.774;2022-11-15T11:58:52;2.50;;;1.27;;
12356;SDS011;6243;51.244;6.774;2022-11-15T12:01:22;1.40;;;0.90;;
12356;SDS011;6243;51.244;6.774;2022-11-15T12:03:51;3.03;;;1.00;;
12356;SDS011;6243;51.244;6.774;2022-11-15T12:06:23;3.17;;;1.23;;
12356;SDS011;6243;51.244;6.774;2022-11-15T12:08:57;2.10;;;0.97;;
12356;SDS011;6243;51.244;6.774;2022-11-15T12:11:28;4.97;;;0.97;;
12356;SDS011;6243;51.244;6.774;2022-11-15T12:13:58;1.70;;;0.97;;
12356;SDS011;6243;51.244;6.774;2022-11-15T12:16:27;3.23;;;1.10;;
12356;SDS011;6243;51.244;6.774;2022-11-15T12:18:54;1.73;;;1.00;;
12356;SDS011;6243;51.244;6.774;2022-11-15T12:21:27;2.90;;;1.43;;
12356;SDS011;6243;51.244;6.774;2022-11-15T12:24:01;3.87;;;1.00;;
12356;SDS011;6243;51.244;6.774;2022-11-15T12:26:31;3.93;;;1.07;;
12356;SDS011;6243;51.244;6.774;2022-11-15T12:29:03;3.00;;;0.80;;
12356;SDS011;6243;51.244;6.774;2022-11-15T12:31:36;1.83;;;0.90;;
12356;SDS011;6243;51.244;6.774;2022-11-15T12:34:12;3.97;;;1.00;;
12356;SDS011;6243;51.244;6.774;2022-11-15T12:36:44;3.00;;;0.90;;
12356;SDS011;6243;51.244;6.774;2022-11-15T12:39:10;3.13;;;1.20;;
12356;SDS011;6243;51.244;6.774;2022-11-15T12:41:37;2.10;;;1.10;;
12356;SDS011;6243;51.244;6.774;2022-11-15T12:44:04;4.37;;;1.20;;
12356;SDS011;6243;51.244;6.774;2022-11-15T12:52:12;3.13;;;1.23;;
12356;SDS011;6243;51.244;6.774;2022-11-15T12:54:51;1.80;;;0.70;;
12356;SDS011;6243;51.244;6.774;2022-11-15T12:57:28;1.60;;;0.80;;
12356;SDS011;6243;51.244;6.774;2022-11-15T13:03:27;3.70;;;1.00;;
12356;SDS011;6243;51.244;6.774;2022-11-15T13:06:04;3.03;;;1.10;;
12356;SDS011;6243;51.244;6.774;2022-11-15T13:08:37;3.87;;;1.30;;
12356;SDS011;6243;51.244;6.774;2022-11-15T13:17:10;2.23;;;1.07;;
12356;SDS011;6243;51.244;6.774;2022-11-15T13:19:46;3.83;;;1.37;;
12356;SDS011;6243;51.244;6.774;2022-11-15T13:22:12;3.80;;;1.33;;
12356;SDS011;6243;51.244;6.774;2022-11-15T13:24:39;2.57;;;1.30;;
12356;SDS011;6243;51.244;6.774;2022-11-15T13:27:09;3.10;;;1.27;;
12356;SDS011;6243;51.244;6.774;2022-11-15T13:29:40;1.57;;;1.30;;
12356;SDS011;6243;51.244;6.774;2022-11-15T13:32:10;3.20;;;1.20;;
12356;SDS011;6243;51.244;6.774;2022-11-15T13:34:36;1.70;;;1.10;;
12356;SDS011;6243;51.244;6.774;2022-11-15T13:37:02;2.80;;;1.20;;
12356;SDS011;6243;51.244;6.774;2022-11-15T13:39:28;3.20;;;1.13;;
12356;SDS011;6243;51.244;6.774;2022-11-15T13:41:57;1.63;;;0.93;;
12356;SDS011;6243;51.244;6.774;2022-11-15T13:44:23;4.40;;;1.17;;
12356;SDS011;6243;51.244;6.774;2022-11-15T13:47:00;4.07;;;1.10;;
12356;SDS011;6243;51.244;6.774;2022-11-15T13:49:28;3.97;;;1.10;;
12356;SDS011;6243;51.244;6.774;2022-11-15T13:51:55;2.20;;;1.27;;
12356;SDS011;6243;51.244;6.774;2022-11-15T13:54:22;2.03;;;1.37;;
12356;SDS011;6243;51.244;6.774;2022-11-15T13:56:52;1.30;;;0.80;;
12356;SDS011;6243;51.244;6.774;2022-11-15T13:59:24;1.50;;;1.00;;
12356;SDS011;6243;51.244;6.774;2022-11-15T14:01:51;3.60;;;1.17;;
12356;SDS011;6243;51.244;6.774;2022-11-15T14:04:19;5.90;;;1.40;;
12356;SDS011;6243;51.244;6.774;2022-11-15T14:06:47;1.43;;;0.87;;
12356;SDS011;6243;51.244;6.774;2022-11-15T14:09:16;2.17;;;1.17;;
12356;SDS011;6243;51.244;6.774;2022-11-15T14:11:55;2.33;;;1.10;;
12356;SDS011;6243;51.244;6.774;2022-11-15T14:14:21;2.70;;;1.40;;
12356;SDS011;6243;51.244;6.774;2022-11-15T14:16:50;1.30;;;1.20;;
12356;SDS011;6243;51.244;6.774;2022-11-15T14:19:33;2.23;;;1.30;;
12356;SDS011;6243;51.244;6.774;2022-11-15T14:22:10;3.30;;;1.20;;
12356;SDS011;6243;51.244;6.774;2022-11-15T14:24:41;2.37;;;1.50;;
12356;SDS011;6243;51.244;6.774;2022-11-15T14:27:18;4.63;;;1.50;;
12356;SDS011;6243;51.244;6.774;2022-11-15T14:29:47;1.63;;;1.23;;
12356;SDS011;6243;51.244;6.774;2022-11-15T14:32:14;3.30;;;1.20;;
12356;SDS011;6243;51.244;6.774;2022-11-15T14:34:42;3.40;;;1.60;;
12356;SDS011;6243;51.244;6.774;2022-11-15T14:37:10;2.57;;;1.47;;
12356;SDS011;6243;51.244;6.774;2022-11-15T14:39:44;3.90;;;1.90;;
12356;SDS011;6243;51.244;6.774;2022-11-15T14:42:09;4.00;;;1.90;;
12356;SDS011;6243;51.244;6.774;2022-11-15T14:44:35;5.00;;;1.90;;
12356;SDS011;6243;51.244;6.774;2022-11-15T14:47:02;6.03;;;1.90;;
12356;SDS011;6243;51.244;6.774;2022-11-15T14:49:27;4.67;;;2.00;;
12356;SDS011;6243;51.244;6.774;2022-11-15T14:51:53;3.33;;;2.20;;
12356;SDS011;6243;51.244;6.774;2022-11-15T14:54:18;2.80;;;1.80;;
12356;SDS011;6243;51.244;6.774;2022-11-15T14:56:44;3.90;;;1.93;;
12356;SDS011;6243;51.244;6.774;2022-11-15T14:59:09;3.70;;;2.10;;
12356;SDS011;6243;51.244;6.774;2022-11-15T15:01:34;4.00;;;2.23;;
12356;SDS011;6243;51.244;6.774;2022-11-15T15:04:01;3.23;;;1.90;;
12356;SDS011;6243;51.244;6.774;2022-11-15T15:06:27;3.33;;;1.90;;
12356;SDS011;6243;51.244;6.774;2022-11-15T15:08:52;3.23;;;2.00;;
12356;SDS011;6243;51.244;6.774;2022-11-15T15:11:19;3.30;;;2.07;;
12356;SDS011;6243;51.244;6.774;2022-11-15T15:13:46;3.57;;;2.27;;
12356;SDS011;6243;51.244;6.774;2022-11-15T15:16:12;3.43;;;2.20;;
12356;SDS011;6243;51.244;6.774;2022-11-15T15:18:38;3.90;;;2.00;;
12356;SDS011;6243;51.244;6.774;2022-11-15T15:21:12;2.63;;;2.00;;
12356;SDS011;6243;51.244;6.774;2022-11-15T15:23:44;6.10;;;2.00;;
12356;SDS011;6243;51.244;6.774;2022-11-15T15:26:10;3.30;;;2.30;;
12356;SDS011;6243;51.244;6.774;2022-11-15T15:28:35;2.20;;;2.00;;
12356;SDS011;6243;51.244;6.774;2022-11-15T15:31:01;3.07;;;1.90;;
12356;SDS011;6243;51.244;6.774;2022-11-15T15:33:27;4.03;;;2.10;;